Terminal Aerodrome Forecast
Issued by NWS

Home | Current Version | Previous Version | Text Only | Print | Product List | Glossary On
Versions: 1 2 3 4 5 6 7 8 9 10 11 12 13
000
FTUS42 TJSJ 202300
TAFKPK
TAF
TKPK 202338Z 2100/2124 VRB05KT P6SM VCSH SCT022
     FM211200 08010KT P6SM FEW018
     FM212300 04005KT P6SM FEW022
      AMD NOT SKED 2102/2111=

USA.gov is the U.S. government's official web portal to all federal, state and local government web resources and services.